Silver Wind — C6FG2 — position and weather

sailwx.info

Track history (hours):
 
Tides and Currents Weather Stations Pressure Air Temp Water Temp Dewpoint Dewpoint Depression Visibility Wind Speed Wind Dir Waves Ship Positions

Silver Wind

Operator: V Ships Leisure

Last reported at 2019-Apr-24 02:01 UTC. Time now 2019-Apr-24 22:16 UTC.
Position N 17°54' W 062°53'.

Length 156 m; draft 5.7 m.

Type: Passenger vessel. MMSI: 308814000.

Date/timePositionNaut miles runAvg speedWind from/ knotsBaromVisibWave heightAir tempDewpointWater temp
2019-Apr-24 02:01N 17°54' W 062°53'2 0.6
2019-Apr-23 23:01N 17°54' W 062°52'0 0.0
2019-Apr-23 11:12N 17°54' W 062°52'712.7
2019-Apr-23 10:39N 17°56' W 062°59'410.9
2019-Apr-23 10:15N 17°56' W 063°04'510.8
2019-Apr-23 09:50N 17°58' W 063°08'410.7
2019-Apr-23 09:27N 17°59' W 063°12'610.6
2019-Apr-23 08:52N 18°01' W 063°18'410.5
2019-Apr-23 08:29N 18°02' W 063°23'510.7
2019-Apr-23 08:00N 18°04' W 063°28'68 3.9
2019-Apr-22 14:19N 18°33' W 064°33'413.8
2019-Apr-22 14:01N 18°36' W 064°35'714.4
2019-Apr-22 13:30N 18°42' W 064°40'714.5
2019-Apr-22 13:01N 18°48' W 064°44'714.3
2019-Apr-22 12:30N 18°54' W 064°48'714.5
2019-Apr-22 12:00N 18°60' W 064°53'714.5
2019-Apr-22 11:30N 19°06' W 064°57'917.4
2019-Apr-22 11:00N 19°13' W 065°02'4315.5
2019-Apr-22 08:14N 19°34' W 065°42'1517.0
2019-Apr-22 07:20N 19°35' W 065°58'1716.9
2019-Apr-22 06:21N 19°37' W 066°16'  
2019-Apr-20 01:29N 25°26' W 079°49'713.8
2019-Apr-20 01:00N 25°32' W 079°51'713.4
2019-Apr-20 00:31N 25°39' W 079°54'612.7
2019-Apr-20 00:01N 25°45' W 079°55'713.0
2019-Apr-19 23:31N 25°51' W 079°57'713.5
2019-Apr-19 23:01N 25°57' W 080°00'714.6
2019-Apr-19 22:31N 26°04' W 080°03'4 7.0
2019-Apr-19 22:00N 26°05' W 080°07'0 0.0
2019-Apr-19 21:29N 26°05' W 080°07'0 0.0
2019-Apr-19 20:59N 26°05' W 080°07'0 0.0
2019-Apr-19 20:29N 26°05' W 080°07'0 0.0
2019-Apr-19 19:59N 26°05' W 080°07'0 0.0
2019-Apr-19 19:29N 26°05' W 080°07'0 0.0
2019-Apr-19 18:59N 26°05' W 080°07'0 0.0
2019-Apr-19 18:29N 26°05' W 080°07'0 0.0
2019-Apr-19 17:59N 26°05' W 080°07'0 0.0
2019-Apr-19 17:29N 26°05' W 080°07'0 0.0
2019-Apr-19 16:59N 26°05' W 080°07'0 0.0
2019-Apr-19 16:29N 26°05' W 080°07'0 0.0
2019-Apr-19 15:59N 26°05' W 080°07'0 0.0
2019-Apr-19 15:29N 26°05' W 080°07'0 0.0
2019-Apr-19 14:59N 26°05' W 080°07'0 0.0
2019-Apr-19 14:29N 26°05' W 080°07'0 0.0
2019-Apr-19 13:59N 26°05' W 080°07'0 0.0
2019-Apr-19 13:29N 26°05' W 080°07'0 0.0
2019-Apr-19 12:59N 26°05' W 080°07'0 0.0
2019-Apr-19 12:29N 26°05' W 080°07'0 0.0
2019-Apr-19 11:59N 26°05' W 080°07'0 0.0
2019-Apr-19 11:31N 26°05' W 080°07'0 0.8
2019-Apr-19 11:00N 26°06' W 080°07'5 9.2
2019-Apr-19 10:30N 26°06' W 080°02'612.4
2019-Apr-19 10:01N 26°06' W 079°55'612.3
2019-Apr-19 09:30N 26°07' W 079°48'612.1
2019-Apr-19 09:00N 26°08' W 079°41'612.2
2019-Apr-19 08:30N 26°09' W 079°35'612.3
2019-Apr-19 08:00N 26°09' W 079°28'612.5
2019-Apr-19 07:30N 26°10' W 079°21'  
2019-Apr-16 20:01N 25°53' W 079°22'011.3
2019-Apr-16 20:00N 25°53' W 079°22'611.2
2019-Apr-16 19:30N 25°48' W 079°24'14710.4
2019-Apr-16 05:25N 23°55' W 081°09'611.2
2019-Apr-16 04:51N 23°51' W 081°14'  
Track history (hours):
 
Tides and Currents Weather Stations Pressure Air Temp Water Temp Dewpoint Dewpoint Depression Visibility Wind Speed Wind Dir Waves Ship Positions

Silver Wind

Operator: V Ships Leisure

Last reported at 2019-Apr-24 02:01 UTC. Time now 2019-Apr-24 22:16 UTC.
Position N 17°54' W 062°53'.

Length 156 m; draft 5.7 m.

Type: Passenger vessel. MMSI: 308814000.

Date/timePositionNaut miles runAvg speedWind from/ knotsBaromVisibWave heightAir tempDewpointWater temp
2019-Apr-24 02:01N 17°54' W 062°53'2 0.6
2019-Apr-23 23:01N 17°54' W 062°52'0 0.0
2019-Apr-23 11:12N 17°54' W 062°52'712.7
2019-Apr-23 10:39N 17°56' W 062°59'410.9
2019-Apr-23 10:15N 17°56' W 063°04'510.8
2019-Apr-23 09:50N 17°58' W 063°08'410.7
2019-Apr-23 09:27N 17°59' W 063°12'610.6
2019-Apr-23 08:52N 18°01' W 063°18'410.5
2019-Apr-23 08:29N 18°02' W 063°23'510.7
2019-Apr-23 08:00N 18°04' W 063°28'68 3.9
2019-Apr-22 14:19N 18°33' W 064°33'413.8
2019-Apr-22 14:01N 18°36' W 064°35'714.4
2019-Apr-22 13:30N 18°42' W 064°40'714.5
2019-Apr-22 13:01N 18°48' W 064°44'714.3
2019-Apr-22 12:30N 18°54' W 064°48'714.5
2019-Apr-22 12:00N 18°60' W 064°53'714.5
2019-Apr-22 11:30N 19°06' W 064°57'917.4
2019-Apr-22 11:00N 19°13' W 065°02'4315.5
2019-Apr-22 08:14N 19°34' W 065°42'1517.0
2019-Apr-22 07:20N 19°35' W 065°58'1716.9
2019-Apr-22 06:21N 19°37' W 066°16'  
2019-Apr-20 01:29N 25°26' W 079°49'713.8
2019-Apr-20 01:00N 25°32' W 079°51'713.4
2019-Apr-20 00:31N 25°39' W 079°54'612.7
2019-Apr-20 00:01N 25°45' W 079°55'713.0
2019-Apr-19 23:31N 25°51' W 079°57'713.5
2019-Apr-19 23:01N 25°57' W 080°00'714.6
2019-Apr-19 22:31N 26°04' W 080°03'4 7.0
2019-Apr-19 22:00N 26°05' W 080°07'0 0.0
2019-Apr-19 21:29N 26°05' W 080°07'0 0.0
2019-Apr-19 20:59N 26°05' W 080°07'0 0.0
2019-Apr-19 20:29N 26°05' W 080°07'0 0.0
2019-Apr-19 19:59N 26°05' W 080°07'0 0.0
2019-Apr-19 19:29N 26°05' W 080°07'0 0.0
2019-Apr-19 18:59N 26°05' W 080°07'0 0.0
2019-Apr-19 18:29N 26°05' W 080°07'0 0.0
2019-Apr-19 17:59N 26°05' W 080°07'0 0.0
2019-Apr-19 17:29N 26°05' W 080°07'0 0.0
2019-Apr-19 16:59N 26°05' W 080°07'0 0.0
2019-Apr-19 16:29N 26°05' W 080°07'0 0.0
2019-Apr-19 15:59N 26°05' W 080°07'0 0.0
2019-Apr-19 15:29N 26°05' W 080°07'0 0.0
2019-Apr-19 14:59N 26°05' W 080°07'0 0.0
2019-Apr-19 14:29N 26°05' W 080°07'0 0.0
2019-Apr-19 13:59N 26°05' W 080°07'0 0.0
2019-Apr-19 13:29N 26°05' W 080°07'0 0.0
2019-Apr-19 12:59N 26°05' W 080°07'0 0.0
2019-Apr-19 12:29N 26°05' W 080°07'0 0.0
2019-Apr-19 11:59N 26°05' W 080°07'0 0.0
2019-Apr-19 11:31N 26°05' W 080°07'0 0.8
2019-Apr-19 11:00N 26°06' W 080°07'5 9.2
2019-Apr-19 10:30N 26°06' W 080°02'612.4
2019-Apr-19 10:01N 26°06' W 079°55'612.3
2019-Apr-19 09:30N 26°07' W 079°48'612.1
2019-Apr-19 09:00N 26°08' W 079°41'612.2
2019-Apr-19 08:30N 26°09' W 079°35'612.3
2019-Apr-19 08:00N 26°09' W 079°28'612.5
2019-Apr-19 07:30N 26°10' W 079°21'  
2019-Apr-16 20:01N 25°53' W 079°22'011.3
2019-Apr-16 20:00N 25°53' W 079°22'611.2
2019-Apr-16 19:30N 25°48' W 079°24'14710.4
2019-Apr-16 05:25N 23°55' W 081°09'611.2
2019-Apr-16 04:51N 23°51' W 081°14'  

Dump ship's entire track history